sensor_id;sensor_type;location;lat;lon;timestamp;P1;durP1;ratioP1;P2;durP2;ratioP2
52888;SDS011;41413;52.770;6.892;2022-11-20T00:01:22;32.38;;;27.50;;
52888;SDS011;41413;52.770;6.892;2022-11-20T00:03:50;36.13;;;27.60;;
52888;SDS011;41413;52.770;6.892;2022-11-20T00:06:18;44.40;;;30.80;;
52888;SDS011;41413;52.770;6.892;2022-11-20T00:08:46;39.53;;;27.95;;
52888;SDS011;41413;52.770;6.892;2022-11-20T00:11:15;36.97;;;30.23;;
52888;SDS011;41413;52.770;6.892;2022-11-20T00:13:46;35.15;;;26.17;;
52888;SDS011;41413;52.770;6.892;2022-11-20T00:16:15;35.38;;;25.55;;
52888;SDS011;41413;52.770;6.892;2022-11-20T00:18:43;28.95;;;24.05;;
52888;SDS011;41413;52.770;6.892;2022-11-20T00:21:20;30.23;;;24.85;;
52888;SDS011;41413;52.770;6.892;2022-11-20T00:23:48;29.60;;;24.27;;
52888;SDS011;41413;52.770;6.892;2022-11-20T00:26:17;30.70;;;24.20;;
52888;SDS011;41413;52.770;6.892;2022-11-20T00:28:48;34.83;;;26.55;;
52888;SDS011;41413;52.770;6.892;2022-11-20T00:31:16;31.67;;;25.27;;
52888;SDS011;41413;52.770;6.892;2022-11-20T00:33:43;28.08;;;24.35;;
52888;SDS011;41413;52.770;6.892;2022-11-20T00:36:14;20.10;;;16.92;;
52888;SDS011;41413;52.770;6.892;2022-11-20T00:38:43;17.85;;;15.80;;
52888;SDS011;41413;52.770;6.892;2022-11-20T00:41:12;18.30;;;15.52;;
52888;SDS011;41413;52.770;6.892;2022-11-20T00:43:41;17.50;;;15.68;;
52888;SDS011;41413;52.770;6.892;2022-11-20T00:46:09;16.58;;;14.73;;
52888;SDS011;41413;52.770;6.892;2022-11-20T00:48:39;16.65;;;13.63;;
52888;SDS011;41413;52.770;6.892;2022-11-20T00:51:06;18.45;;;14.20;;
52888;SDS011;41413;52.770;6.892;2022-11-20T00:53:33;18.90;;;13.90;;
52888;SDS011;41413;52.770;6.892;2022-11-20T00:56:07;14.05;;;12.07;;
52888;SDS011;41413;52.770;6.892;2022-11-20T00:58:37;14.25;;;11.63;;
52888;SDS011;41413;52.770;6.892;2022-11-20T01:01:06;17.60;;;13.02;;
52888;SDS011;41413;52.770;6.892;2022-11-20T01:03:43;15.15;;;12.15;;
52888;SDS011;41413;52.770;6.892;2022-11-20T01:06:21;17.50;;;15.63;;
52888;SDS011;41413;52.770;6.892;2022-11-20T01:08:53;15.68;;;13.05;;
52888;SDS011;41413;52.770;6.892;2022-11-20T01:11:26;13.25;;;11.43;;
52888;SDS011;41413;52.770;6.892;2022-11-20T01:13:54;14.07;;;12.60;;
52888;SDS011;41413;52.770;6.892;2022-11-20T01:16:23;16.65;;;12.07;;
52888;SDS011;41413;52.770;6.892;2022-11-20T01:19:13;19.02;;;13.30;;
52888;SDS011;41413;52.770;6.892;2022-11-20T01:21:43;18.02;;;13.85;;
52888;SDS011;41413;52.770;6.892;2022-11-20T01:24:12;17.80;;;13.20;;
52888;SDS011;41413;52.770;6.892;2022-11-20T01:26:42;20.40;;;14.07;;
52888;SDS011;41413;52.770;6.892;2022-11-20T01:29:14;17.52;;;15.98;;
52888;SDS011;41413;52.770;6.892;2022-11-20T01:31:44;15.57;;;14.00;;
52888;SDS011;41413;52.770;6.892;2022-11-20T01:34:14;18.38;;;14.85;;
52888;SDS011;41413;52.770;6.892;2022-11-20T01:36:43;16.90;;;15.15;;
52888;SDS011;41413;52.770;6.892;2022-11-20T01:39:15;13.80;;;12.40;;
52888;SDS011;41413;52.770;6.892;2022-11-20T01:41:45;15.43;;;13.60;;
52888;SDS011;41413;52.770;6.892;2022-11-20T01:47:30;19.65;;;14.65;;
52888;SDS011;41413;52.770;6.892;2022-11-20T01:50:22;18.80;;;16.15;;
52888;SDS011;41413;52.770;6.892;2022-11-20T01:52:53;15.90;;;14.02;;
52888;SDS011;41413;52.770;6.892;2022-11-20T01:55:31;18.08;;;15.43;;
52888;SDS011;41413;52.770;6.892;2022-11-20T01:58:01;16.38;;;13.45;;
52888;SDS011;41413;52.770;6.892;2022-11-20T02:00:29;15.60;;;13.88;;
52888;SDS011;41413;52.770;6.892;2022-11-20T02:02:57;16.77;;;14.98;;
52888;SDS011;41413;52.770;6.892;2022-11-20T02:05:34;16.88;;;15.13;;
52888;SDS011;41413;52.770;6.892;2022-11-20T02:08:05;18.10;;;14.43;;
52888;SDS011;41413;52.770;6.892;2022-11-20T02:10:32;19.77;;;15.88;;
52888;SDS011;41413;52.770;6.892;2022-11-20T02:13:00;17.75;;;14.43;;
52888;SDS011;41413;52.770;6.892;2022-11-20T02:15:46;15.07;;;13.38;;
52888;SDS011;41413;52.770;6.892;2022-11-20T02:18:14;14.63;;;12.27;;
52888;SDS011;41413;52.770;6.892;2022-11-20T02:20:44;15.82;;;14.15;;
52888;SDS011;41413;52.770;6.892;2022-11-20T02:25:46;14.85;;;13.13;;
52888;SDS011;41413;52.770;6.892;2022-11-20T02:28:13;19.90;;;14.15;;
52888;SDS011;41413;52.770;6.892;2022-11-20T02:30:41;19.40;;;12.00;;
52888;SDS011;41413;52.770;6.892;2022-11-20T02:33:08;14.68;;;11.93;;
52888;SDS011;41413;52.770;6.892;2022-11-20T02:38:01;15.60;;;13.95;;
52888;SDS011;41413;52.770;6.892;2022-11-20T02:40:29;15.05;;;12.52;;
52888;SDS011;41413;52.770;6.892;2022-11-20T02:42:56;14.02;;;12.60;;
52888;SDS011;41413;52.770;6.892;2022-11-20T02:45:23;14.70;;;12.82;;
52888;SDS011;41413;52.770;6.892;2022-11-20T02:47:50;15.80;;;13.30;;
52888;SDS011;41413;52.770;6.892;2022-11-20T02:50:18;14.77;;;12.23;;
52888;SDS011;41413;52.770;6.892;2022-11-20T02:52:44;15.65;;;13.93;;
52888;SDS011;41413;52.770;6.892;2022-11-20T02:55:11;14.45;;;12.40;;
52888;SDS011;41413;52.770;6.892;2022-11-20T02:57:38;13.48;;;12.10;;
52888;SDS011;41413;52.770;6.892;2022-11-20T03:00:05;14.30;;;12.07;;
52888;SDS011;41413;52.770;6.892;2022-11-20T03:02:32;14.40;;;12.43;;
52888;SDS011;41413;52.770;6.892;2022-11-20T03:04:59;14.95;;;12.35;;
52888;SDS011;41413;52.770;6.892;2022-11-20T03:07:26;18.77;;;16.02;;
52888;SDS011;41413;52.770;6.892;2022-11-20T03:09:52;15.82;;;12.88;;
52888;SDS011;41413;52.770;6.892;2022-11-20T03:12:19;18.98;;;12.07;;
52888;SDS011;41413;52.770;6.892;2022-11-20T03:14:46;15.00;;;11.52;;
52888;SDS011;41413;52.770;6.892;2022-11-20T03:17:18;19.48;;;11.95;;
52888;SDS011;41413;52.770;6.892;2022-11-20T03:19:44;16.10;;;11.85;;
52888;SDS011;41413;52.770;6.892;2022-11-20T03:22:11;12.55;;;11.25;;
52888;SDS011;41413;52.770;6.892;2022-11-20T03:24:38;15.65;;;13.82;;
52888;SDS011;41413;52.770;6.892;2022-11-20T03:27:05;14.82;;;13.10;;
52888;SDS011;41413;52.770;6.892;2022-11-20T03:29:31;14.90;;;12.68;;
52888;SDS011;41413;52.770;6.892;2022-11-20T03:31:58;15.60;;;12.40;;
52888;SDS011;41413;52.770;6.892;2022-11-20T03:34:25;16.88;;;12.52;;
52888;SDS011;41413;52.770;6.892;2022-11-20T03:36:51;17.13;;;13.07;;
52888;SDS011;41413;52.770;6.892;2022-11-20T03:39:18;12.95;;;11.65;;
52888;SDS011;41413;52.770;6.892;2022-11-20T03:41:45;16.70;;;12.65;;
52888;SDS011;41413;52.770;6.892;2022-11-20T03:44:12;17.17;;;13.18;;
52888;SDS011;41413;52.770;6.892;2022-11-20T03:46:38;14.05;;;11.13;;
52888;SDS011;41413;52.770;6.892;2022-11-20T03:49:05;17.90;;;13.43;;
52888;SDS011;41413;52.770;6.892;2022-11-20T03:51:33;14.15;;;12.57;;
52888;SDS011;41413;52.770;6.892;2022-11-20T03:54:02;14.57;;;13.00;;
52888;SDS011;41413;52.770;6.892;2022-11-20T03:56:35;14.85;;;11.82;;
52888;SDS011;41413;52.770;6.892;2022-11-20T03:59:03;14.52;;;12.00;;
52888;SDS011;41413;52.770;6.892;2022-11-20T04:01:32;13.02;;;11.73;;
52888;SDS011;41413;52.770;6.892;2022-11-20T04:04:01;12.88;;;11.52;;
52888;SDS011;41413;52.770;6.892;2022-11-20T04:06:29;16.48;;;11.68;;
52888;SDS011;41413;52.770;6.892;2022-11-20T04:09:01;14.30;;;12.50;;
52888;SDS011;41413;52.770;6.892;2022-11-20T04:11:29;13.85;;;11.20;;
52888;SDS011;41413;52.770;6.892;2022-11-20T04:14:01;13.95;;;12.25;;
52888;SDS011;41413;52.770;6.892;2022-11-20T04:16:30;14.82;;;12.70;;
52888;SDS011;41413;52.770;6.892;2022-11-20T04:18:58;14.82;;;11.25;;
52888;SDS011;41413;52.770;6.892;2022-11-20T04:21:26;15.68;;;14.10;;
52888;SDS011;41413;52.770;6.892;2022-11-20T04:23:54;16.63;;;12.38;;
52888;SDS011;41413;52.770;6.892;2022-11-20T04:26:22;14.18;;;12.43;;
52888;SDS011;41413;52.770;6.892;2022-11-20T04:28:50;14.55;;;11.75;;
52888;SDS011;41413;52.770;6.892;2022-11-20T04:31:22;12.85;;;11.38;;
52888;SDS011;41413;52.770;6.892;2022-11-20T04:33:50;15.63;;;12.35;;
52888;SDS011;41413;52.770;6.892;2022-11-20T04:36:18;14.07;;;11.30;;
52888;SDS011;41413;52.770;6.892;2022-11-20T04:38:49;12.70;;;10.98;;
52888;SDS011;41413;52.770;6.892;2022-11-20T04:41:22;13.32;;;11.68;;
52888;SDS011;41413;52.770;6.892;2022-11-20T04:43:55;13.38;;;11.95;;
52888;SDS011;41413;52.770;6.892;2022-11-20T04:46:26;14.88;;;12.77;;
52888;SDS011;41413;52.770;6.892;2022-11-20T04:48:54;16.73;;;12.40;;
52888;SDS011;41413;52.770;6.892;2022-11-20T04:51:20;14.50;;;13.00;;
52888;SDS011;41413;52.770;6.892;2022-11-20T04:53:47;17.38;;;12.25;;
52888;SDS011;41413;52.770;6.892;2022-11-20T04:56:14;15.23;;;12.23;;
52888;SDS011;41413;52.770;6.892;2022-11-20T04:58:41;14.82;;;11.05;;
52888;SDS011;41413;52.770;6.892;2022-11-20T05:03:36;14.20;;;12.65;;
52888;SDS011;41413;52.770;6.892;2022-11-20T05:06:08;13.55;;;11.50;;
52888;SDS011;41413;52.770;6.892;2022-11-20T05:08:35;13.48;;;12.07;;
52888;SDS011;41413;52.770;6.892;2022-11-20T05:11:07;14.00;;;12.38;;
52888;SDS011;41413;52.770;6.892;2022-11-20T05:13:45;13.60;;;12.10;;
52888;SDS011;41413;52.770;6.892;2022-11-20T05:16:13;14.27;;;12.73;;
52888;SDS011;41413;52.770;6.892;2022-11-20T05:18:41;13.95;;;12.45;;
52888;SDS011;41413;52.770;6.892;2022-11-20T05:21:09;15.25;;;12.63;;
52888;SDS011;41413;52.770;6.892;2022-11-20T05:23:36;14.50;;;12.60;;
52888;SDS011;41413;52.770;6.892;2022-11-20T05:26:04;17.88;;;12.52;;
52888;SDS011;41413;52.770;6.892;2022-11-20T05:28:32;15.32;;;12.82;;
52888;SDS011;41413;52.770;6.892;2022-11-20T05:31:09;14.27;;;12.23;;
52888;SDS011;41413;52.770;6.892;2022-11-20T05:33:41;14.60;;;12.93;;
52888;SDS011;41413;52.770;6.892;2022-11-20T05:36:09;13.80;;;11.52;;
52888;SDS011;41413;52.770;6.892;2022-11-20T05:38:37;13.75;;;12.27;;
52888;SDS011;41413;52.770;6.892;2022-11-20T05:41:05;13.77;;;11.43;;
52888;SDS011;41413;52.770;6.892;2022-11-20T05:43:43;13.43;;;11.95;;
52888;SDS011;41413;52.770;6.892;2022-11-20T05:46:12;14.57;;;12.40;;
52888;SDS011;41413;52.770;6.892;2022-11-20T05:48:40;18.20;;;12.10;;
52888;SDS011;41413;52.770;6.892;2022-11-20T05:51:09;16.50;;;15.02;;
52888;SDS011;41413;52.770;6.892;2022-11-20T05:53:37;17.00;;;15.23;;
52888;SDS011;41413;52.770;6.892;2022-11-20T05:56:12;16.38;;;13.00;;
52888;SDS011;41413;52.770;6.892;2022-11-20T05:58:41;12.52;;;10.57;;
52888;SDS011;41413;52.770;6.892;2022-11-20T06:03:39;12.50;;;11.05;;
52888;SDS011;41413;52.770;6.892;2022-11-20T06:06:08;16.75;;;11.23;;
52888;SDS011;41413;52.770;6.892;2022-11-20T06:08:35;15.02;;;13.45;;
52888;SDS011;41413;52.770;6.892;2022-11-20T06:11:06;12.40;;;11.10;;
52888;SDS011;41413;52.770;6.892;2022-11-20T06:13:34;13.90;;;12.23;;
52888;SDS011;41413;52.770;6.892;2022-11-20T06:16:07;13.88;;;11.88;;
52888;SDS011;41413;52.770;6.892;2022-11-20T06:18:34;12.55;;;10.73;;
52888;SDS011;41413;52.770;6.892;2022-11-20T06:21:04;12.85;;;11.40;;
52888;SDS011;41413;52.770;6.892;2022-11-20T06:23:39;14.02;;;11.65;;
52888;SDS011;41413;52.770;6.892;2022-11-20T06:26:07;15.52;;;12.30;;
52888;SDS011;41413;52.770;6.892;2022-11-20T06:28:36;12.85;;;11.55;;
52888;SDS011;41413;52.770;6.892;2022-11-20T06:31:03;13.50;;;11.93;;
52888;SDS011;41413;52.770;6.892;2022-11-20T06:33:31;14.63;;;11.63;;
52888;SDS011;41413;52.770;6.892;2022-11-20T06:35:59;13.00;;;11.10;;
52888;SDS011;41413;52.770;6.892;2022-11-20T06:41:00;15.25;;;11.82;;
52888;SDS011;41413;52.770;6.892;2022-11-20T06:43:28;17.42;;;12.63;;
52888;SDS011;41413;52.770;6.892;2022-11-20T06:45:55;13.25;;;11.70;;
52888;SDS011;41413;52.770;6.892;2022-11-20T06:48:23;16.10;;;13.48;;
52888;SDS011;41413;52.770;6.892;2022-11-20T06:50:50;15.85;;;13.25;;
52888;SDS011;41413;52.770;6.892;2022-11-20T06:53:17;15.82;;;14.20;;
52888;SDS011;41413;52.770;6.892;2022-11-20T06:55:44;17.13;;;15.45;;
52888;SDS011;41413;52.770;6.892;2022-11-20T06:58:12;13.23;;;11.32;;
52888;SDS011;41413;52.770;6.892;2022-11-20T07:00:40;13.38;;;12.07;;
52888;SDS011;41413;52.770;6.892;2022-11-20T07:03:08;17.42;;;13.95;;
52888;SDS011;41413;52.770;6.892;2022-11-20T07:05:36;15.68;;;12.20;;
52888;SDS011;41413;52.770;6.892;2022-11-20T07:08:04;12.93;;;11.50;;
52888;SDS011;41413;52.770;6.892;2022-11-20T07:10:31;15.48;;;12.05;;
52888;SDS011;41413;52.770;6.892;2022-11-20T07:12:59;16.58;;;12.73;;
52888;SDS011;41413;52.770;6.892;2022-11-20T07:15:25;15.02;;;11.68;;
52888;SDS011;41413;52.770;6.892;2022-11-20T07:17:52;15.02;;;13.43;;
52888;SDS011;41413;52.770;6.892;2022-11-20T07:20:19;15.02;;;13.10;;
52888;SDS011;41413;52.770;6.892;2022-11-20T07:22:46;13.00;;;11.68;;
52888;SDS011;41413;52.770;6.892;2022-11-20T07:25:12;12.80;;;11.35;;
52888;SDS011;41413;52.770;6.892;2022-11-20T07:27:39;14.15;;;11.88;;
52888;SDS011;41413;52.770;6.892;2022-11-20T07:30:06;16.67;;;13.57;;
52888;SDS011;41413;52.770;6.892;2022-11-20T07:32:32;14.30;;;12.35;;
52888;SDS011;41413;52.770;6.892;2022-11-20T07:34:59;14.05;;;12.60;;
52888;SDS011;41413;52.770;6.892;2022-11-20T07:37:26;17.40;;;12.13;;
52888;SDS011;41413;52.770;6.892;2022-11-20T07:39:52;16.08;;;12.57;;
52888;SDS011;41413;52.770;6.892;2022-11-20T07:42:19;12.73;;;11.40;;
52888;SDS011;41413;52.770;6.892;2022-11-20T07:44:46;17.05;;;12.85;;
52888;SDS011;41413;52.770;6.892;2022-11-20T07:47:12;13.68;;;10.77;;
52888;SDS011;41413;52.770;6.892;2022-11-20T07:49:39;15.45;;;13.85;;
52888;SDS011;41413;52.770;6.892;2022-11-20T07:52:06;15.38;;;12.55;;
52888;SDS011;41413;52.770;6.892;2022-11-20T07:54:32;15.07;;;12.25;;
52888;SDS011;41413;52.770;6.892;2022-11-20T07:56:59;14.00;;;12.30;;
52888;SDS011;41413;52.770;6.892;2022-11-20T07:59:25;15.52;;;13.43;;
52888;SDS011;41413;52.770;6.892;2022-11-20T08:01:52;18.38;;;15.18;;
52888;SDS011;41413;52.770;6.892;2022-11-20T08:04:19;14.60;;;12.98;;
52888;SDS011;41413;52.770;6.892;2022-11-20T08:06:45;16.83;;;14.10;;
52888;SDS011;41413;52.770;6.892;2022-11-20T08:09:12;19.10;;;15.15;;
52888;SDS011;41413;52.770;6.892;2022-11-20T08:11:39;18.35;;;14.10;;
52888;SDS011;41413;52.770;6.892;2022-11-20T08:14:24;15.98;;;14.40;;
52888;SDS011;41413;52.770;6.892;2022-11-20T08:16:51;18.33;;;15.27;;
52888;SDS011;41413;52.770;6.892;2022-11-20T08:19:17;16.10;;;14.45;;
52888;SDS011;41413;52.770;6.892;2022-11-20T08:21:45;20.85;;;17.25;;
52888;SDS011;41413;52.770;6.892;2022-11-20T08:24:12;16.40;;;13.82;;
52888;SDS011;41413;52.770;6.892;2022-11-20T08:26:39;18.33;;;14.75;;
52888;SDS011;41413;52.770;6.892;2022-11-20T08:29:06;17.55;;;13.38;;
52888;SDS011;41413;52.770;6.892;2022-11-20T08:31:33;16.80;;;13.32;;
52888;SDS011;41413;52.770;6.892;2022-11-20T08:34:00;15.95;;;14.23;;
52888;SDS011;41413;52.770;6.892;2022-11-20T08:36:33;25.08;;;20.13;;
52888;SDS011;41413;52.770;6.892;2022-11-20T08:39:01;27.48;;;23.50;;
52888;SDS011;41413;52.770;6.892;2022-11-20T08:41:28;15.82;;;14.18;;
52888;SDS011;41413;52.770;6.892;2022-11-20T08:44:01;17.45;;;13.25;;
52888;SDS011;41413;52.770;6.892;2022-11-20T08:46:34;14.93;;;13.45;;
52888;SDS011;41413;52.770;6.892;2022-11-20T08:49:06;14.50;;;12.32;;
52888;SDS011;41413;52.770;6.892;2022-11-20T08:51:34;15.73;;;12.93;;
52888;SDS011;41413;52.770;6.892;2022-11-20T08:54:01;14.02;;;12.48;;
52888;SDS011;41413;52.770;6.892;2022-11-20T08:56:28;13.15;;;11.68;;
52888;SDS011;41413;52.770;6.892;2022-11-20T08:58:55;14.60;;;12.35;;
52888;SDS011;41413;52.770;6.892;2022-11-20T09:01:43;16.17;;;14.63;;
52888;SDS011;41413;52.770;6.892;2022-11-20T09:04:09;15.23;;;12.30;;
52888;SDS011;41413;52.770;6.892;2022-11-20T09:06:37;16.15;;;13.35;;
52888;SDS011;41413;52.770;6.892;2022-11-20T09:09:04;15.98;;;14.10;;
52888;SDS011;41413;52.770;6.892;2022-11-20T09:11:32;16.80;;;15.07;;
52888;SDS011;41413;52.770;6.892;2022-11-20T09:14:00;15.27;;;13.40;;
52888;SDS011;41413;52.770;6.892;2022-11-20T09:16:28;14.10;;;12.70;;
52888;SDS011;41413;52.770;6.892;2022-11-20T09:18:55;16.00;;;14.05;;
52888;SDS011;41413;52.770;6.892;2022-11-20T09:21:41;17.55;;;14.70;;
52888;SDS011;41413;52.770;6.892;2022-11-20T09:24:08;18.30;;;13.48;;
52888;SDS011;41413;52.770;6.892;2022-11-20T09:26:35;15.82;;;13.52;;
52888;SDS011;41413;52.770;6.892;2022-11-20T09:29:02;16.77;;;15.07;;
52888;SDS011;41413;52.770;6.892;2022-11-20T09:31:28;17.52;;;13.30;;
52888;SDS011;41413;52.770;6.892;2022-11-20T09:33:55;17.00;;;14.55;;
52888;SDS011;41413;52.770;6.892;2022-11-20T09:36:22;16.98;;;15.18;;
52888;SDS011;41413;52.770;6.892;2022-11-20T09:38:48;20.00;;;18.00;;
52888;SDS011;41413;52.770;6.892;2022-11-20T09:46:57;17.00;;;13.07;;
52888;SDS011;41413;52.770;6.892;2022-11-20T09:49:45;15.05;;;12.48;;
52888;SDS011;41413;52.770;6.892;2022-11-20T09:55:21;15.20;;;13.80;;
52888;SDS011;41413;52.770;6.892;2022-11-20T09:57:48;15.82;;;14.32;;
52888;SDS011;41413;52.770;6.892;2022-11-20T10:00:18;16.95;;;15.23;;
52888;SDS011;41413;52.770;6.892;2022-11-20T10:02:55;17.92;;;15.63;;
52888;SDS011;41413;52.770;6.892;2022-11-20T10:05:37;17.65;;;15.23;;
52888;SDS011;41413;52.770;6.892;2022-11-20T10:08:48;14.50;;;13.02;;
52888;SDS011;41413;52.770;6.892;2022-11-20T10:11:33;14.13;;;12.65;;
52888;SDS011;41413;52.770;6.892;2022-11-20T10:14:12;16.17;;;14.48;;
52888;SDS011;41413;52.770;6.892;2022-11-20T10:22:07;16.52;;;14.98;;
52888;SDS011;41413;52.770;6.892;2022-11-20T10:24:55;14.25;;;12.95;;
52888;SDS011;41413;52.770;6.892;2022-11-20T10:27:33;12.55;;;11.23;;
52888;SDS011;41413;52.770;6.892;2022-11-20T10:30:11;12.80;;;10.77;;
52888;SDS011;41413;52.770;6.892;2022-11-20T10:32:40;10.50;;;9.45;;
52888;SDS011;41413;52.770;6.892;2022-11-20T10:37:47;11.32;;;10.25;;
52888;SDS011;41413;52.770;6.892;2022-11-20T10:40:20;10.07;;;7.47;;
52888;SDS011;41413;52.770;6.892;2022-11-20T10:45:44;9.30;;;8.40;;
52888;SDS011;41413;52.770;6.892;2022-11-20T10:48:15;10.85;;;7.85;;
52888;SDS011;41413;52.770;6.892;2022-11-20T10:53:46;10.20;;;8.55;;
52888;SDS011;41413;52.770;6.892;2022-11-20T10:56:35;8.75;;;7.03;;
52888;SDS011;41413;52.770;6.892;2022-11-20T10:59:33;10.23;;;9.20;;
52888;SDS011;41413;52.770;6.892;2022-11-20T11:02:12;10.20;;;9.20;;
52888;SDS011;41413;52.770;6.892;2022-11-20T11:04:46;12.02;;;10.82;;
52888;SDS011;41413;52.770;6.892;2022-11-20T11:07:20;41.55;;;32.33;;
52888;SDS011;41413;52.770;6.892;2022-11-20T11:09:54;13.70;;;12.38;;
52888;SDS011;41413;52.770;6.892;2022-11-20T11:12:22;16.27;;;14.85;;
52888;SDS011;41413;52.770;6.892;2022-11-20T11:14:52;11.43;;;10.25;;
52888;SDS011;41413;52.770;6.892;2022-11-20T11:17:21;12.25;;;11.07;;
52888;SDS011;41413;52.770;6.892;2022-11-20T11:20:06;11.60;;;10.35;;
52888;SDS011;41413;52.770;6.892;2022-11-20T11:22:42;9.80;;;8.80;;
52888;SDS011;41413;52.770;6.892;2022-11-20T11:25:55;10.38;;;9.13;;
52888;SDS011;41413;52.770;6.892;2022-11-20T11:28:22;11.48;;;9.48;;
52888;SDS011;41413;52.770;6.892;2022-11-20T11:30:52;12.32;;;10.30;;
52888;SDS011;41413;52.770;6.892;2022-11-20T11:33:23;12.50;;;10.40;;
52888;SDS011;41413;52.770;6.892;2022-11-20T11:35:54;13.63;;;9.25;;
52888;SDS011;41413;52.770;6.892;2022-11-20T11:41:05;10.07;;;9.10;;
52888;SDS011;41413;52.770;6.892;2022-11-20T11:43:35;11.60;;;10.45;;
52888;SDS011;41413;52.770;6.892;2022-11-20T11:49:01;11.07;;;8.73;;
52888;SDS011;41413;52.770;6.892;2022-11-20T11:51:38;9.70;;;8.68;;
52888;SDS011;41413;52.770;6.892;2022-11-20T11:54:17;11.52;;;9.98;;
52888;SDS011;41413;52.770;6.892;2022-11-20T11:56:51;11.25;;;9.57;;
52888;SDS011;41413;52.770;6.892;2022-11-20T11:59:25;12.25;;;9.98;;
52888;SDS011;41413;52.770;6.892;2022-11-20T12:02:01;11.40;;;10.18;;
52888;SDS011;41413;52.770;6.892;2022-11-20T12:04:44;11.15;;;9.77;;
52888;SDS011;41413;52.770;6.892;2022-11-20T12:07:34;11.00;;;9.80;;
52888;SDS011;41413;52.770;6.892;2022-11-20T12:16:08;12.57;;;10.15;;
52888;SDS011;41413;52.770;6.892;2022-11-20T12:18:40;10.52;;;9.48;;
52888;SDS011;41413;52.770;6.892;2022-11-20T12:39:58;13.43;;;12.23;;
52888;SDS011;41413;52.770;6.892;2022-11-20T12:43:02;11.85;;;10.82;;
52888;SDS011;41413;52.770;6.892;2022-11-20T12:45:58;11.07;;;9.98;;
52888;SDS011;41413;52.770;6.892;2022-11-20T13:08:08;13.10;;;11.63;;
52888;SDS011;41413;52.770;6.892;2022-11-20T13:13:16;13.57;;;12.20;;
52888;SDS011;41413;52.770;6.892;2022-11-20T13:15:56;13.52;;;12.32;;
52888;SDS011;41413;52.770;6.892;2022-11-20T13:18:43;14.52;;;12.80;;
52888;SDS011;41413;52.770;6.892;2022-11-20T13:21:18;14.82;;;13.23;;
52888;SDS011;41413;52.770;6.892;2022-11-20T13:24:05;13.30;;;11.70;;
52888;SDS011;41413;52.770;6.892;2022-11-20T13:29:43;17.90;;;16.08;;
52888;SDS011;41413;52.770;6.892;2022-11-20T13:34:52;17.08;;;15.38;;
52888;SDS011;41413;52.770;6.892;2022-11-20T13:37:31;14.75;;;13.35;;
52888;SDS011;41413;52.770;6.892;2022-11-20T13:45:42;17.05;;;15.48;;
52888;SDS011;41413;52.770;6.892;2022-11-20T13:48:20;19.98;;;15.32;;
52888;SDS011;41413;52.770;6.892;2022-11-20T13:51:01;20.33;;;16.73;;
52888;SDS011;41413;52.770;6.892;2022-11-20T13:59:30;17.33;;;15.60;;
52888;SDS011;41413;52.770;6.892;2022-11-20T14:02:10;17.42;;;15.70;;
52888;SDS011;41413;52.770;6.892;2022-11-20T14:04:42;20.20;;;18.02;;
52888;SDS011;41413;52.770;6.892;2022-11-20T14:07:11;19.98;;;17.63;;
52888;SDS011;41413;52.770;6.892;2022-11-20T14:09:38;14.88;;;13.48;;
52888;SDS011;41413;52.770;6.892;2022-11-20T14:12:20;18.48;;;16.70;;
52888;SDS011;41413;52.770;6.892;2022-11-20T14:14:50;18.90;;;16.95;;
52888;SDS011;41413;52.770;6.892;2022-11-20T14:17:22;18.80;;;16.83;;
52888;SDS011;41413;52.770;6.892;2022-11-20T14:19:55;17.40;;;15.60;;
52888;SDS011;41413;52.770;6.892;2022-11-20T14:22:27;17.30;;;15.60;;
52888;SDS011;41413;52.770;6.892;2022-11-20T14:25:01;17.55;;;15.85;;
52888;SDS011;41413;52.770;6.892;2022-11-20T14:27:32;19.60;;;17.63;;
52888;SDS011;41413;52.770;6.892;2022-11-20T14:30:04;19.52;;;17.45;;
52888;SDS011;41413;52.770;6.892;2022-11-20T14:32:31;18.40;;;16.52;;
52888;SDS011;41413;52.770;6.892;2022-11-20T14:35:06;17.65;;;15.82;;
52888;SDS011;41413;52.770;6.892;2022-11-20T14:37:37;18.95;;;16.92;;
52888;SDS011;41413;52.770;6.892;2022-11-20T14:40:21;15.93;;;13.82;;
52888;SDS011;41413;52.770;6.892;2022-11-20T14:42:48;20.38;;;18.42;;
52888;SDS011;41413;52.770;6.892;2022-11-20T14:45:15;19.20;;;17.25;;
52888;SDS011;41413;52.770;6.892;2022-11-20T14:47:43;18.55;;;16.63;;
52888;SDS011;41413;52.770;6.892;2022-11-20T14:50:16;21.27;;;19.00;;
52888;SDS011;41413;52.770;6.892;2022-11-20T14:52:54;20.00;;;18.08;;
52888;SDS011;41413;52.770;6.892;2022-11-20T14:55:32;19.75;;;17.75;;
52888;SDS011;41413;52.770;6.892;2022-11-20T14:58:01;19.48;;;17.65;;
52888;SDS011;41413;52.770;6.892;2022-11-20T15:00:33;20.67;;;18.67;;
52888;SDS011;41413;52.770;6.892;2022-11-20T15:03:00;20.00;;;18.10;;
52888;SDS011;41413;52.770;6.892;2022-11-20T15:05:47;19.23;;;16.88;;
52888;SDS011;41413;52.770;6.892;2022-11-20T15:08:15;18.92;;;16.90;;
52888;SDS011;41413;52.770;6.892;2022-11-20T15:10:47;16.42;;;14.73;;
52888;SDS011;41413;52.770;6.892;2022-11-20T15:13:18;19.58;;;15.73;;
52888;SDS011;41413;52.770;6.892;2022-11-20T15:15:53;20.48;;;18.42;;
52888;SDS011;41413;52.770;6.892;2022-11-20T15:18:36;20.15;;;18.02;;
52888;SDS011;41413;52.770;6.892;2022-11-20T15:21:15;19.13;;;17.40;;
52888;SDS011;41413;52.770;6.892;2022-11-20T15:23:43;18.98;;;17.05;;
52888;SDS011;41413;52.770;6.892;2022-11-20T15:26:11;20.15;;;18.23;;
52888;SDS011;41413;52.770;6.892;2022-11-20T15:28:45;21.55;;;19.20;;
52888;SDS011;41413;52.770;6.892;2022-11-20T15:31:14;20.75;;;18.58;;
52888;SDS011;41413;52.770;6.892;2022-11-20T15:33:43;20.98;;;17.52;;
52888;SDS011;41413;52.770;6.892;2022-11-20T15:36:09;20.63;;;18.73;;
52888;SDS011;41413;52.770;6.892;2022-11-20T15:38:36;19.20;;;17.17;;
52888;SDS011;41413;52.770;6.892;2022-11-20T15:41:03;19.95;;;18.05;;
52888;SDS011;41413;52.770;6.892;2022-11-20T15:43:31;19.10;;;17.10;;
52888;SDS011;41413;52.770;6.892;2022-11-20T15:46:01;20.75;;;18.55;;
52888;SDS011;41413;52.770;6.892;2022-11-20T15:48:35;21.55;;;19.55;;
52888;SDS011;41413;52.770;6.892;2022-11-20T15:51:21;20.23;;;17.38;;
52888;SDS011;41413;52.770;6.892;2022-11-20T15:53:54;22.08;;;20.00;;
52888;SDS011;41413;52.770;6.892;2022-11-20T15:56:21;19.55;;;17.55;;
52888;SDS011;41413;52.770;6.892;2022-11-20T15:58:48;21.20;;;18.95;;
52888;SDS011;41413;52.770;6.892;2022-11-20T16:01:16;22.58;;;20.30;;
52888;SDS011;41413;52.770;6.892;2022-11-20T16:03:44;22.33;;;20.02;;
52888;SDS011;41413;52.770;6.892;2022-11-20T16:06:11;20.52;;;18.55;;
52888;SDS011;41413;52.770;6.892;2022-11-20T16:08:38;21.70;;;19.38;;
52888;SDS011;41413;52.770;6.892;2022-11-20T16:11:05;22.45;;;20.00;;
52888;SDS011;41413;52.770;6.892;2022-11-20T16:13:32;21.25;;;19.02;;
52888;SDS011;41413;52.770;6.892;2022-11-20T16:16:38;20.88;;;18.33;;
52888;SDS011;41413;52.770;6.892;2022-11-20T16:19:09;21.67;;;19.60;;
52888;SDS011;41413;52.770;6.892;2022-11-20T16:21:37;21.92;;;19.80;;
52888;SDS011;41413;52.770;6.892;2022-11-20T16:24:06;21.58;;;19.60;;
52888;SDS011;41413;52.770;6.892;2022-11-20T16:26:34;23.83;;;21.48;;
52888;SDS011;41413;52.770;6.892;2022-11-20T16:29:02;24.20;;;17.83;;
52888;SDS011;41413;52.770;6.892;2022-11-20T16:31:30;24.63;;;18.40;;
52888;SDS011;41413;52.770;6.892;2022-11-20T16:33:59;22.20;;;19.83;;